Scf Baltica — A8IA5 — position and weather

sailwx.info

Track history (hours):
 
Tides and Currents Weather Stations Pressure Air Temp Water Temp Dewpoint Dewpoint Depression Visibility Wind Speed Wind Dir Waves Ship Positions

Scf Baltica

Last reported at 2016-Feb-13 16:33 UTC. Time now 2016-Feb-13 17:20 UTC.
Position N 57°24' E 011°26'.

Length 250 m; draft 8.7 m.

Type: Ship. MMSI: 636012813.

Date/timePositionNaut miles runAvg speedWind from/ knotsBaromVisibWave heightAir tempDewpointWater temp
2016-Feb-13 16:33N 57°24' E 011°26'1313.1
2016-Feb-13 15:33N 57°34' E 011°10'1313.1
2016-Feb-13 14:33N 57°43' E 010°52'1312.7
2016-Feb-13 13:33N 57°46' E 010°29'28511.2
2016-Feb-12 12:07N 54°15' E 004°47'6010.8
2016-Feb-12 06:32N 53°28' E 003°44'82 9.2
2016-Feb-11 21:34N 52°06' E 003°40'1211.7
2016-Feb-11 20:34N 52°02' E 003°57'1110.7
2016-Feb-11 19:33N 51°56' E 004°12'1 0.5
2016-Feb-11 18:31N 51°55' E 004°12'0 0.0
2016-Feb-11 17:31N 51°55' E 004°12'0 0.0
2016-Feb-11 16:25N 51°55' E 004°12'0 0.0
2016-Feb-11 15:28N 51°55' E 004°12'0 0.0
2016-Feb-11 14:31N 51°55' E 004°12'0 0.0
2016-Feb-11 13:31N 51°55' E 004°12'0 0.0
2016-Feb-11 12:31N 51°55' E 004°12'0 0.0
2016-Feb-11 11:31N 51°55' E 004°12'0 0.0
2016-Feb-11 10:28N 51°55' E 004°12'0 0.0
2016-Feb-11 09:19N 51°55' E 004°12'0 0.0
2016-Feb-11 08:31N 51°55' E 004°12'0 0.0
2016-Feb-11 07:19N 51°55' E 004°12'0 0.0
2016-Feb-11 06:28N 51°55' E 004°12'0 0.0
2016-Feb-11 05:31N 51°55' E 004°12'0 0.0
2016-Feb-11 04:22N 51°55' E 004°12'0 0.0
2016-Feb-11 03:22N 51°55' E 004°12'0 0.0
2016-Feb-11 02:31N 51°55' E 004°12'0 0.0
2016-Feb-11 01:19N 51°55' E 004°12'0 0.0
2016-Feb-11 00:31N 51°55' E 004°12'0 0.0
2016-Feb-10 23:25N 51°55' E 004°12'0 0.0
2016-Feb-10 21:22N 51°55' E 004°12'0 0.0
2016-Feb-10 20:31N 51°55' E 004°12'0 0.0
2016-Feb-10 19:31N 51°55' E 004°12'0 0.0
2016-Feb-10 18:16N 51°55' E 004°12'0 0.7
2016-Feb-10 17:33N 51°56' E 004°12'5 4.8
2016-Feb-10 16:33N 51°59' E 004°05'9 9.5
2016-Feb-10 15:33N 51°60' E 003°50'5 4.8
2016-Feb-10 14:33N 52°02' E 003°44'114 9.5
2016-Feb-10 02:30N 53°55' E 004°07'1212.2
2016-Feb-10 01:33N 54°02' E 004°23'31010.3
2016-Feb-08 19:33N 57°50' E 010°38'10 9.3
2016-Feb-08 18:30N 57°42' E 010°48'9 9.7
2016-Feb-08 17:33N 57°35' E 010°59'1212.1
2016-Feb-08 16:33N 57°30' E 011°20'1211.6
2016-Feb-08 15:33N 57°20' E 011°31'1212.4
2016-Feb-08 14:33N 57°08' E 011°39'1212.2
2016-Feb-08 13:33N 56°57' E 011°46'1212.5
2016-Feb-08 12:33N 56°45' E 011°53'8812.0
2016-Feb-08 05:10N 55°21' E 011°02'711.1
2016-Feb-08 04:33N 55°15' E 011°06'1111.4
2016-Feb-08 03:33N 55°04' E 010°60'1212.4
2016-Feb-08 02:33N 54°53' E 010°50'1212.5
2016-Feb-08 01:33N 54°40' E 010°47'1312.5
2016-Feb-08 00:33N 54°36' E 011°08'1312.9
2016-Feb-07 23:34N 54°31' E 011°28'1312.6
2016-Feb-07 22:34N 54°26' E 011°48'1212.2
2016-Feb-07 21:33N 54°26' E 012°09'1111.1
2016-Feb-07 20:34N 54°37' E 012°17'8 8.1
2016-Feb-07 19:34N 54°41' E 012°29'3511.0
2016-Feb-07 16:24N 54°55' E 013°24'1011.8
2016-Feb-07 15:34N 54°59' E 013°40'1212.2
2016-Feb-07 14:34N 55°03' E 013°60'1211.6
2016-Feb-07 13:34N 55°11' E 014°15'1211.9
2016-Feb-07 12:33N 55°20' E 014°28'1111.5
2016-Feb-07 11:34N 55°28' E 014°42'1211.9
2016-Feb-07 10:34N 55°34' E 015°01'1212.2
2016-Feb-07 09:34N 55°38' E 015°20'1212.3
2016-Feb-07 08:34N 55°41' E 015°42'33511.1
2016-Feb-06 02:29N 59°36' E 023°08'1212.8
2016-Feb-06 01:33N 59°39' E 023°31'1512.7
2016-Feb-06 00:23N 59°43' E 023°59'7612.4
2016-Feb-05 18:17N 60°00' E 026°27'912.3
2016-Feb-05 17:33N 60°01' E 026°44'1211.9
2016-Feb-05 16:34N 60°01' E 027°08'1612.6
2016-Feb-05 15:19N 60°09' E 027°35'911.6
2016-Feb-05 14:33N 60°11' E 027°52'1212.1
2016-Feb-05 13:33N 60°08' E 028°15'1111.2
2016-Feb-05 12:33N 60°09' E 028°38'11 5.4
2016-Feb-05 10:33N 60°20' E 028°43'0 0.0
2016-Feb-04 08:21N 60°20' E 028°43'1 0.9
2016-Feb-04 07:32N 60°19' E 028°43'5 4.4
2016-Feb-04 06:30N 60°15' E 028°48'6 6.6
2016-Feb-04 05:33N 60°10' E 028°41'1010.2
2016-Feb-04 04:33N 60°06' E 028°23'1110.9
2016-Feb-04 03:33N 60°09' E 028°02'1110.5
2016-Feb-04 02:31N 60°09' E 027°40'1111.2
2016-Feb-04 01:33N 60°03' E 027°22'9 9.0
2016-Feb-04 00:32N 60°01' E 027°04'  
Track history (hours):
 
Tides and Currents Weather Stations Pressure Air Temp Water Temp Dewpoint Dewpoint Depression Visibility Wind Speed Wind Dir Waves Ship Positions

Scf Baltica

Last reported at 2016-Feb-13 16:33 UTC. Time now 2016-Feb-13 17:20 UTC.
Position N 57°24' E 011°26'.

Length 250 m; draft 8.7 m.

Type: Ship. MMSI: 636012813.

Date/timePositionNaut miles runAvg speedWind from/ knotsBaromVisibWave heightAir tempDewpointWater temp
2016-Feb-13 16:33N 57°24' E 011°26'1313.1
2016-Feb-13 15:33N 57°34' E 011°10'1313.1
2016-Feb-13 14:33N 57°43' E 010°52'1312.7
2016-Feb-13 13:33N 57°46' E 010°29'28511.2
2016-Feb-12 12:07N 54°15' E 004°47'6010.8
2016-Feb-12 06:32N 53°28' E 003°44'82 9.2
2016-Feb-11 21:34N 52°06' E 003°40'1211.7
2016-Feb-11 20:34N 52°02' E 003°57'1110.7
2016-Feb-11 19:33N 51°56' E 004°12'1 0.5
2016-Feb-11 18:31N 51°55' E 004°12'0 0.0
2016-Feb-11 17:31N 51°55' E 004°12'0 0.0
2016-Feb-11 16:25N 51°55' E 004°12'0 0.0
2016-Feb-11 15:28N 51°55' E 004°12'0 0.0
2016-Feb-11 14:31N 51°55' E 004°12'0 0.0
2016-Feb-11 13:31N 51°55' E 004°12'0 0.0
2016-Feb-11 12:31N 51°55' E 004°12'0 0.0
2016-Feb-11 11:31N 51°55' E 004°12'0 0.0
2016-Feb-11 10:28N 51°55' E 004°12'0 0.0
2016-Feb-11 09:19N 51°55' E 004°12'0 0.0
2016-Feb-11 08:31N 51°55' E 004°12'0 0.0
2016-Feb-11 07:19N 51°55' E 004°12'0 0.0
2016-Feb-11 06:28N 51°55' E 004°12'0 0.0
2016-Feb-11 05:31N 51°55' E 004°12'0 0.0
2016-Feb-11 04:22N 51°55' E 004°12'0 0.0
2016-Feb-11 03:22N 51°55' E 004°12'0 0.0
2016-Feb-11 02:31N 51°55' E 004°12'0 0.0
2016-Feb-11 01:19N 51°55' E 004°12'0 0.0
2016-Feb-11 00:31N 51°55' E 004°12'0 0.0
2016-Feb-10 23:25N 51°55' E 004°12'0 0.0
2016-Feb-10 21:22N 51°55' E 004°12'0 0.0
2016-Feb-10 20:31N 51°55' E 004°12'0 0.0
2016-Feb-10 19:31N 51°55' E 004°12'0 0.0
2016-Feb-10 18:16N 51°55' E 004°12'0 0.7
2016-Feb-10 17:33N 51°56' E 004°12'5 4.8
2016-Feb-10 16:33N 51°59' E 004°05'9 9.5
2016-Feb-10 15:33N 51°60' E 003°50'5 4.8
2016-Feb-10 14:33N 52°02' E 003°44'114 9.5
2016-Feb-10 02:30N 53°55' E 004°07'1212.2
2016-Feb-10 01:33N 54°02' E 004°23'31010.3
2016-Feb-08 19:33N 57°50' E 010°38'10 9.3
2016-Feb-08 18:30N 57°42' E 010°48'9 9.7
2016-Feb-08 17:33N 57°35' E 010°59'1212.1
2016-Feb-08 16:33N 57°30' E 011°20'1211.6
2016-Feb-08 15:33N 57°20' E 011°31'1212.4
2016-Feb-08 14:33N 57°08' E 011°39'1212.2
2016-Feb-08 13:33N 56°57' E 011°46'1212.5
2016-Feb-08 12:33N 56°45' E 011°53'8812.0
2016-Feb-08 05:10N 55°21' E 011°02'711.1
2016-Feb-08 04:33N 55°15' E 011°06'1111.4
2016-Feb-08 03:33N 55°04' E 010°60'1212.4
2016-Feb-08 02:33N 54°53' E 010°50'1212.5
2016-Feb-08 01:33N 54°40' E 010°47'1312.5
2016-Feb-08 00:33N 54°36' E 011°08'1312.9
2016-Feb-07 23:34N 54°31' E 011°28'1312.6
2016-Feb-07 22:34N 54°26' E 011°48'1212.2
2016-Feb-07 21:33N 54°26' E 012°09'1111.1
2016-Feb-07 20:34N 54°37' E 012°17'8 8.1
2016-Feb-07 19:34N 54°41' E 012°29'3511.0
2016-Feb-07 16:24N 54°55' E 013°24'1011.8
2016-Feb-07 15:34N 54°59' E 013°40'1212.2
2016-Feb-07 14:34N 55°03' E 013°60'1211.6
2016-Feb-07 13:34N 55°11' E 014°15'1211.9
2016-Feb-07 12:33N 55°20' E 014°28'1111.5
2016-Feb-07 11:34N 55°28' E 014°42'1211.9
2016-Feb-07 10:34N 55°34' E 015°01'1212.2
2016-Feb-07 09:34N 55°38' E 015°20'1212.3
2016-Feb-07 08:34N 55°41' E 015°42'33511.1
2016-Feb-06 02:29N 59°36' E 023°08'1212.8
2016-Feb-06 01:33N 59°39' E 023°31'1512.7
2016-Feb-06 00:23N 59°43' E 023°59'7612.4
2016-Feb-05 18:17N 60°00' E 026°27'912.3
2016-Feb-05 17:33N 60°01' E 026°44'1211.9
2016-Feb-05 16:34N 60°01' E 027°08'1612.6
2016-Feb-05 15:19N 60°09' E 027°35'911.6
2016-Feb-05 14:33N 60°11' E 027°52'1212.1
2016-Feb-05 13:33N 60°08' E 028°15'1111.2
2016-Feb-05 12:33N 60°09' E 028°38'11 5.4
2016-Feb-05 10:33N 60°20' E 028°43'0 0.0
2016-Feb-04 08:21N 60°20' E 028°43'1 0.9
2016-Feb-04 07:32N 60°19' E 028°43'5 4.4
2016-Feb-04 06:30N 60°15' E 028°48'6 6.6
2016-Feb-04 05:33N 60°10' E 028°41'1010.2
2016-Feb-04 04:33N 60°06' E 028°23'1110.9
2016-Feb-04 03:33N 60°09' E 028°02'1110.5
2016-Feb-04 02:31N 60°09' E 027°40'1111.2
2016-Feb-04 01:33N 60°03' E 027°22'9 9.0
2016-Feb-04 00:32N 60°01' E 027°04'  

Dump ship's entire track history